MiSS Sylvia — WDE5412 — position and weather

sailwx.info

Track history (hours):
 
Tides and Currents Weather Stations Pressure Air Temp Water Temp Dewpoint Dewpoint Depression Visibility Wind Speed Wind Dir Waves Ship Positions

MiSS Sylvia

Owner: DOUBLE J MARINE, LLC, LAPLACE, LA. More information available from US FCC via Universal Licensing System and Coast Guard Vessel Documentation Center.

Last reported at 2016-May-30 07:32 UTC. Time now 2016-May-31 07:49 UTC.
Position N 29°57' W 090°23'.

Length 20 m; draft 2.7 m.

Type: Towing. MMSI: 367366340.

Date/timePositionNaut miles runAvg speedWind from/ knotsBaromVisibWave heightAir tempDewpointWater temp
2016-May-30 07:32N 29°57' W 090°23'8 2.5
2016-May-30 04:26N 29°57' W 090°14'3 3.0
2016-May-30 03:33N 29°56' W 090°12'3 3.0
2016-May-30 02:34N 29°57' W 090°09'3 2.5
2016-May-30 01:34N 29°55' W 090°07'3 3.4
2016-May-30 00:33N 29°56' W 090°04'2 2.2
2016-May-29 23:34N 29°57' W 090°02'3 3.2
2016-May-29 22:33N 29°56' W 089°58'3 3.4
2016-May-29 21:32N 29°54' W 089°55'2 2.3
2016-May-29 20:32N 29°52' W 089°56'2 2.1
2016-May-29 19:34N 29°52' W 089°58'3 3.3
2016-May-29 18:33N 29°49' W 090°00'4 0.4
2016-May-29 10:22N 29°45' W 090°01'6 6.8
2016-May-29 09:32N 29°50' W 089°59'5 4.9
2016-May-29 08:32N 29°53' W 089°54'6 6.2
2016-May-29 07:33N 29°56' W 089°60'5 5.4
2016-May-29 06:34N 29°55' W 090°06'3 2.7
2016-May-29 05:33N 29°56' W 090°08'1 1.4
2016-May-29 04:33N 29°57' W 090°10'4 0.2
2016-May-28 12:33N 29°57' W 090°14'3 2.4
2016-May-28 11:29N 29°56' W 090°12'3 3.6
2016-May-28 10:34N 29°57' W 090°08'3 2.6
2016-May-28 09:33N 29°55' W 090°07'4 3.6
2016-May-28 08:33N 29°57' W 090°04'4 3.8
2016-May-28 07:33N 29°56' W 089°59'3 3.0
2016-May-28 06:33N 29°55' W 089°56'0 0.3
2016-May-28 05:33N 29°55' W 089°56'3 3.0
2016-May-28 04:34N 29°56' W 089°60'6 6.4
2016-May-28 03:34N 29°54' W 090°07'5 5.0
2016-May-28 02:32N 29°55' W 090°13'2 0.2
2016-May-27 13:26N 29°57' W 090°14'3 3.0
2016-May-27 12:33N 29°56' W 090°12'3 3.0
2016-May-27 11:33N 29°57' W 090°09'1 0.6
2016-May-27 10:32N 29°57' W 090°08'0 0.0
2016-May-27 09:33N 29°57' W 090°08'0 0.0
2016-May-27 08:34N 29°57' W 090°08'0 0.0
2016-May-27 07:33N 29°57' W 090°08'0 0.3
2016-May-27 06:33N 29°57' W 090°08'1 1.3
2016-May-27 05:33N 29°57' W 090°10'3 0.1
2016-May-25 22:28N 29°55' W 090°13'4 3.9
2016-May-25 21:33N 29°57' W 090°09'1 0.8
2016-May-25 20:33N 29°57' W 090°10'  
2016-May-20 09:32N 29°57' W 090°23'  
Track history (hours):
 
Tides and Currents Weather Stations Pressure Air Temp Water Temp Dewpoint Dewpoint Depression Visibility Wind Speed Wind Dir Waves Ship Positions

MiSS Sylvia

Owner: DOUBLE J MARINE, LLC, LAPLACE, LA. More information available from US FCC via Universal Licensing System and Coast Guard Vessel Documentation Center.

Last reported at 2016-May-30 07:32 UTC. Time now 2016-May-31 07:49 UTC.
Position N 29°57' W 090°23'.

Length 20 m; draft 2.7 m.

Type: Towing. MMSI: 367366340.

Date/timePositionNaut miles runAvg speedWind from/ knotsBaromVisibWave heightAir tempDewpointWater temp
2016-May-30 07:32N 29°57' W 090°23'8 2.5
2016-May-30 04:26N 29°57' W 090°14'3 3.0
2016-May-30 03:33N 29°56' W 090°12'3 3.0
2016-May-30 02:34N 29°57' W 090°09'3 2.5
2016-May-30 01:34N 29°55' W 090°07'3 3.4
2016-May-30 00:33N 29°56' W 090°04'2 2.2
2016-May-29 23:34N 29°57' W 090°02'3 3.2
2016-May-29 22:33N 29°56' W 089°58'3 3.4
2016-May-29 21:32N 29°54' W 089°55'2 2.3
2016-May-29 20:32N 29°52' W 089°56'2 2.1
2016-May-29 19:34N 29°52' W 089°58'3 3.3
2016-May-29 18:33N 29°49' W 090°00'4 0.4
2016-May-29 10:22N 29°45' W 090°01'6 6.8
2016-May-29 09:32N 29°50' W 089°59'5 4.9
2016-May-29 08:32N 29°53' W 089°54'6 6.2
2016-May-29 07:33N 29°56' W 089°60'5 5.4
2016-May-29 06:34N 29°55' W 090°06'3 2.7
2016-May-29 05:33N 29°56' W 090°08'1 1.4
2016-May-29 04:33N 29°57' W 090°10'4 0.2
2016-May-28 12:33N 29°57' W 090°14'3 2.4
2016-May-28 11:29N 29°56' W 090°12'3 3.6
2016-May-28 10:34N 29°57' W 090°08'3 2.6
2016-May-28 09:33N 29°55' W 090°07'4 3.6
2016-May-28 08:33N 29°57' W 090°04'4 3.8
2016-May-28 07:33N 29°56' W 089°59'3 3.0
2016-May-28 06:33N 29°55' W 089°56'0 0.3
2016-May-28 05:33N 29°55' W 089°56'3 3.0
2016-May-28 04:34N 29°56' W 089°60'6 6.4
2016-May-28 03:34N 29°54' W 090°07'5 5.0
2016-May-28 02:32N 29°55' W 090°13'2 0.2
2016-May-27 13:26N 29°57' W 090°14'3 3.0
2016-May-27 12:33N 29°56' W 090°12'3 3.0
2016-May-27 11:33N 29°57' W 090°09'1 0.6
2016-May-27 10:32N 29°57' W 090°08'0 0.0
2016-May-27 09:33N 29°57' W 090°08'0 0.0
2016-May-27 08:34N 29°57' W 090°08'0 0.0
2016-May-27 07:33N 29°57' W 090°08'0 0.3
2016-May-27 06:33N 29°57' W 090°08'1 1.3
2016-May-27 05:33N 29°57' W 090°10'3 0.1
2016-May-25 22:28N 29°55' W 090°13'4 3.9
2016-May-25 21:33N 29°57' W 090°09'1 0.8
2016-May-25 20:33N 29°57' W 090°10'  
2016-May-20 09:32N 29°57' W 090°23'  

Dump ship's entire track history